Terminal Aerodrome Forecast
Issued by NWS

Home | Current Version | Previous Version | Text Only | Print | Product List | Glossary On
Versions: 1 2 3 4 5 6 7 8 9 10 11 12 13 14 15 16 17 18 19 20 21 22 23 24 25 26 27 28 29 30 31 32 33 34 35 36 37 38 39 40 41 42 43 44
879
FTUS43 KDDC 071802 AAE
TAFGCK
TAF AMD
KGCK 071802Z 0718/0818 03019KT 2SM -SN BR SCT012 OVC050
     FM072000 04013G23KT P6SM OVC018
     FM080200 01011G17KT P6SM BKN050
     FM080400 36010KT P6SM SKC=

USA.gov is the U.S. government's official web portal to all federal, state and local government web resources and services.